Terminal Aerodrome Forecast
Issued by NWS

Home | Current Version | Previous Version | Text Only | Print | Product List | Glossary On
Versions: 1 2 3 4 5 6 7 8 9 10 11 12 13 14 15 16 17 18 19
000
FTUS44 KMOB 200739 AAA
TAFBFM
TAF AMD
KBFM 200739Z 2008/2106 00000KT 1/4SM FG VV002
      TEMPO 2010/2014 1/2SM FG VV002
     FM201500 11008KT P6SM FEW010 BKN250=

USA.gov is the U.S. government's official web portal to all federal, state and local government web resources and services.